Terminal Aerodrome Forecast
Issued by NWS Louisville, KY

Home | Current Version | Previous Version | Text Only | Print | Product List | Glossary On
Versions: 1 2 3 4 5 6 7 8 9 10 11 12 13 14 15 16 17
789
FTUS43 KLMK 060529
TAFSDF
TAF
KSDF 060529Z 0606/0712 VRB02KT P6SM BKN250
     FM061500 21006KT P6SM SCT090
     FM070600 19003KT P6SM SCT250=

USA.gov is the U.S. government's official web portal to all federal, state and local government web resources and services.